Time;durP1;ratioP1;P1;durP2;ratioP2;P2;SDS_P1;SDS_P2;PMS_P1;PMS_P2;Temp;Humidity;BMP_temperature;BMP_pressure;BME280_temperature;BME280_humidity;BME280_pressure;Samples;Min_cycle;Max_cycle;Signal;HPM_P1;HPM_P2
2021/10/15 00:00:01;;;;;;;112.20;60.85;;;;;;;;;;5025575;28;20033;-48
2021/10/15 00:02:27;;;;;;;131.43;70.70;;;;;;;;;;5026026;28;20366;-43
2021/10/15 00:04:53;;;;;;;113.45;61.47;;;;;;;;;;5025638;28;20068;-44
2021/10/15 00:07:19;;;;;;;97.25;55.88;;;;;;;;;;5026355;28;20033;-49
2021/10/15 00:09:45;;;;;;;106.32;58.47;;;;;;;;;;5025396;28;20029;-41
2021/10/15 00:12:12;;;;;;;114.05;63.28;;;;;;;;;;5025703;28;20218;-44
2021/10/15 00:14:38;;;;;;;102.05;56.08;;;;;;;;;;5044501;28;20029;-60
2021/10/15 00:17:04;;;;;;;103.07;57.17;;;;;;;;;;5052737;28;20021;-55
2021/10/15 00:19:30;;;;;;;100.30;57.58;;;;;;;;;;5052953;28;20444;-44
2021/10/15 00:21:56;;;;;;;100.88;54.60;;;;;;;;;;5052743;28;20031;-43
2021/10/15 00:24:22;;;;;;;110.95;58.78;;;;;;;;;;5052363;28;20390;-64
2021/10/15 00:26:48;;;;;;;96.60;54.53;;;;;;;;;;5053371;28;20057;-42
2021/10/15 00:29:15;;;;;;;112.07;60.03;;;;;;;;;;5052731;28;20021;-43
2021/10/15 00:31:41;;;;;;;110.90;60.30;;;;;;;;;;5052523;28;20108;-45
2021/10/15 00:34:07;;;;;;;116.85;64.15;;;;;;;;;;5052487;28;20018;-54
2021/10/15 00:36:33;;;;;;;115.22;67.35;;;;;;;;;;5055026;28;20026;-43
2021/10/15 00:38:59;;;;;;;208.63;129.32;;;;;;;;;;5056188;28;20060;-44
2021/10/15 00:41:25;;;;;;;223.20;149.55;;;;;;;;;;5056314;28;20025;-51
2021/10/15 00:44:01;;;;;;;233.55;165.27;;;;;;;;;;5056308;28;20507;-48
2021/10/15 00:46:27;;;;;;;184.00;125.97;;;;;;;;;;5055979;28;20119;-55
2021/10/15 00:48:53;;;;;;;151.63;99.85;;;;;;;;;;5056457;28;20124;-60
2021/10/15 00:51:20;;;;;;;167.30;106.10;;;;;;;;;;5056959;28;20397;-49
2021/10/15 00:53:46;;;;;;;127.60;77.93;;;;;;;;;;5056731;28;20155;-59
2021/10/15 00:56:13;;;;;;;94.05;54.83;;;;;;;;;;5056497;28;20029;-62
2021/10/15 00:58:39;;;;;;;110.45;62.67;;;;;;;;;;5055894;28;20036;-62
2021/10/15 01:01:05;;;;;;;90.75;52.83;;;;;;;;;;5055801;28;20017;-50
2021/10/15 01:03:31;;;;;;;90.47;51.03;;;;;;;;;;5055904;28;20508;-44
2021/10/15 01:05:57;;;;;;;110.20;59.47;;;;;;;;;;5055585;28;20048;-62
2021/10/15 01:08:23;;;;;;;92.18;51.15;;;;;;;;;;5055686;28;20025;-58
2021/10/15 01:10:49;;;;;;;75.35;43.47;;;;;;;;;;5055601;28;20033;-51
2021/10/15 01:13:16;;;;;;;77.30;42.92;;;;;;;;;;5055523;28;20104;-62
2021/10/15 01:15:44;;;;;;;65.35;38.88;;;;;;;;;;5055591;28;20108;-60
2021/10/15 01:18:11;;;;;;;73.07;41.33;;;;;;;;;;5055516;28;20025;-60
2021/10/15 01:20:39;;;;;;;78.65;45.00;;;;;;;;;;5055614;28;20025;-61
2021/10/15 01:23:06;;;;;;;79.25;48.35;;;;;;;;;;5055559;28;20024;-62
2021/10/15 01:25:33;;;;;;;81.78;51.95;;;;;;;;;;5055212;28;20454;-61
2021/10/15 01:27:59;;;;;;;67.57;40.08;;;;;;;;;;5055452;28;20025;-61
2021/10/15 01:30:25;;;;;;;66.47;40.53;;;;;;;;;;5054166;28;20120;-61
2021/10/15 01:32:51;;;;;;;64.10;37.58;;;;;;;;;;5055639;28;20744;-62
2021/10/15 01:35:18;;;;;;;67.65;44.20;;;;;;;;;;5055239;28;20029;-60
2021/10/15 01:37:44;;;;;;;70.15;44.30;;;;;;;;;;5055481;28;20401;-60
2021/10/15 01:40:10;;;;;;;61.78;38.22;;;;;;;;;;5055246;28;20086;-54
2021/10/15 01:42:55;;;;;;;53.80;35.55;;;;;;;;;;5055376;28;20081;-60
2021/10/15 01:45:22;;;;;;;52.95;33.92;;;;;;;;;;5055600;28;20033;-51
2021/10/15 01:47:48;;;;;;;69.55;40.00;;;;;;;;;;5054829;28;20025;-54
2021/10/15 01:50:14;;;;;;;61.47;35.55;;;;;;;;;;5054960;28;20491;-57
2021/10/15 01:52:40;;;;;;;60.47;36.85;;;;;;;;;;5055078;28;20040;-58
2021/10/15 01:55:07;;;;;;;60.20;35.45;;;;;;;;;;5054882;28;20473;-60
2021/10/15 01:57:34;;;;;;;65.15;36.13;;;;;;;;;;5054958;28;20154;-59
2021/10/15 02:00:00;;;;;;;55.92;35.10;;;;;;;;;;5054902;28;20032;-62
2021/10/15 02:02:26;;;;;;;55.10;33.72;;;;;;;;;;5054890;28;20535;-60
2021/10/15 02:04:52;;;;;;;63.63;37.83;;;;;;;;;;5053263;28;20044;-62
2021/10/15 02:07:22;;;;;;;58.50;34.55;;;;;;;;;;5054644;28;20515;-63
2021/10/15 02:09:49;;;;;;;63.72;35.65;;;;;;;;;;5054701;28;20100;-59
2021/10/15 02:12:15;;;;;;;56.03;35.35;;;;;;;;;;5054638;28;20029;-62
2021/10/15 02:14:41;;;;;;;61.42;36.60;;;;;;;;;;5054378;28;20029;-46
2021/10/15 02:17:07;;;;;;;58.67;35.83;;;;;;;;;;5054487;28;20027;-58
2021/10/15 02:19:35;;;;;;;66.63;37.63;;;;;;;;;;5054580;28;20029;-47
2021/10/15 02:22:01;;;;;;;63.42;38.55;;;;;;;;;;5054410;28;20492;-57
2021/10/15 02:24:27;;;;;;;57.88;36.65;;;;;;;;;;5054210;28;20079;-55
2021/10/15 02:26:54;;;;;;;60.42;38.10;;;;;;;;;;5054285;28;20033;-50
2021/10/15 02:29:20;;;;;;;65.78;39.90;;;;;;;;;;5054253;28;20028;-51
2021/10/15 02:31:46;;;;;;;60.88;36.95;;;;;;;;;;5054361;28;20053;-49
2021/10/15 02:34:12;;;;;;;63.67;36.45;;;;;;;;;;5054135;28;20427;-55
2021/10/15 02:36:38;;;;;;;61.60;35.88;;;;;;;;;;5054240;28;20029;-51
2021/10/15 02:39:05;;;;;;;63.80;36.30;;;;;;;;;;5054171;28;20017;-54
2021/10/15 02:41:31;;;;;;;61.42;36.42;;;;;;;;;;5053894;28;20033;-56
2021/10/15 02:43:57;;;;;;;55.58;34.97;;;;;;;;;;5054007;28;20092;-63
2021/10/15 02:46:23;;;;;;;58.15;34.08;;;;;;;;;;5053949;28;20040;-62
2021/10/15 02:48:49;;;;;;;62.60;35.67;;;;;;;;;;5054033;28;20615;-62
2021/10/15 02:51:15;;;;;;;65.43;38.03;;;;;;;;;;5052247;28;20045;-55
2021/10/15 02:53:41;;;;;;;58.83;34.63;;;;;;;;;;5053928;28;20035;-62
2021/10/15 02:56:08;;;;;;;59.58;35.10;;;;;;;;;;5053811;28;20032;-49
2021/10/15 02:58:34;;;;;;;57.22;33.75;;;;;;;;;;5053091;28;20028;-61
2021/10/15 03:01:00;;;;;;;59.30;36.08;;;;;;;;;;5053649;28;20028;-58
2021/10/15 03:03:26;;;;;;;62.13;35.38;;;;;;;;;;5053716;28;20040;-61
2021/10/15 03:05:52;;;;;;;62.97;36.33;;;;;;;;;;5053415;28;20440;-61
2021/10/15 03:08:18;;;;;;;58.13;35.13;;;;;;;;;;5053613;28;20092;-61
2021/10/15 03:10:44;;;;;;;65.85;36.40;;;;;;;;;;5053586;28;20025;-51
2021/10/15 03:13:11;;;;;;;67.70;40.45;;;;;;;;;;5053661;28;20105;-54
2021/10/15 03:15:37;;;;;;;68.25;41.28;;;;;;;;;;5053490;28;20052;-47
2021/10/15 03:18:05;;;;;;;66.55;40.45;;;;;;;;;;5053546;28;20029;-58
2021/10/15 03:20:31;;;;;;;64.55;39.15;;;;;;;;;;5053478;28;20071;-58
2021/10/15 03:22:57;;;;;;;66.88;39.42;;;;;;;;;;5053511;28;20021;-54
2021/10/15 03:25:23;;;;;;;74.55;42.88;;;;;;;;;;5053029;28;20052;-52
2021/10/15 03:27:49;;;;;;;73.07;43.17;;;;;;;;;;5053401;28;20053;-51
2021/10/15 03:30:16;;;;;;;69.25;42.25;;;;;;;;;;5053167;28;20087;-51
2021/10/15 03:32:42;;;;;;;74.65;39.92;;;;;;;;;;5053474;28;20119;-50
2021/10/15 03:35:08;;;;;;;62.88;38.78;;;;;;;;;;5053136;28;20029;-49
2021/10/15 03:37:34;;;;;;;68.65;41.85;;;;;;;;;;5053832;28;20025;-61
2021/10/15 03:40:00;;;;;;;69.38;41.08;;;;;;;;;;5053965;28;20108;-63
2021/10/15 03:42:29;;;;;;;65.47;39.80;;;;;;;;;;5054027;28;20093;-59
2021/10/15 03:44:55;;;;;;;61.28;37.35;;;;;;;;;;5053085;28;20035;-60
2021/10/15 03:47:21;;;;;;;67.00;39.33;;;;;;;;;;5053311;28;20474;-63
2021/10/15 03:49:47;;;;;;;66.20;39.47;;;;;;;;;;5051543;28;20025;-62
2021/10/15 03:52:14;;;;;;;64.25;38.45;;;;;;;;;;5053208;28;20108;-63
2021/10/15 03:54:40;;;;;;;63.88;39.28;;;;;;;;;;5052995;28;20021;-59
2021/10/15 03:57:06;;;;;;;60.10;36.60;;;;;;;;;;5053182;28;20029;-61
2021/10/15 03:59:32;;;;;;;67.30;38.40;;;;;;;;;;5052986;28;20021;-44
2021/10/15 04:01:58;;;;;;;65.75;38.67;;;;;;;;;;5053037;28;20100;-51
2021/10/15 04:04:24;;;;;;;61.17;37.47;;;;;;;;;;5053105;28;20036;-47
2021/10/15 04:06:51;;;;;;;63.38;38.35;;;;;;;;;;5052922;28;20515;-45
2021/10/15 04:09:17;;;;;;;64.03;39.33;;;;;;;;;;5053151;28;20493;-50
2021/10/15 04:11:43;;;;;;;67.20;39.35;;;;;;;;;;5056773;28;20028;-57
2021/10/15 04:14:09;;;;;;;74.43;42.00;;;;;;;;;;5055709;28;20044;-57
2021/10/15 04:16:35;;;;;;;68.03;40.15;;;;;;;;;;5056631;28;20025;-54
2021/10/15 04:19:01;;;;;;;62.50;37.78;;;;;;;;;;5056895;28;20025;-62
2021/10/15 04:21:27;;;;;;;65.75;38.17;;;;;;;;;;5056684;28;20477;-59
2021/10/15 04:23:54;;;;;;;69.15;38.83;;;;;;;;;;5056542;28;20049;-51
2021/10/15 04:26:20;;;;;;;76.00;39.40;;;;;;;;;;5056498;28;20111;-56
2021/10/15 04:28:46;;;;;;;68.55;38.50;;;;;;;;;;5056642;28;20439;-57
2021/10/15 04:31:12;;;;;;;66.32;38.85;;;;;;;;;;5056491;28;20017;-51
2021/10/15 04:33:38;;;;;;;72.45;39.72;;;;;;;;;;5056531;28;20025;-51
2021/10/15 04:36:04;;;;;;;88.40;44.50;;;;;;;;;;5056272;28;20029;-53
2021/10/15 04:38:30;;;;;;;81.72;44.95;;;;;;;;;;5056378;28;20017;-54
2021/10/15 04:40:56;;;;;;;71.82;39.28;;;;;;;;;;5056122;28;20477;-60
2021/10/15 04:43:23;;;;;;;73.97;38.05;;;;;;;;;;5056393;28;20448;-59
2021/10/15 04:45:49;;;;;;;72.57;40.88;;;;;;;;;;5056114;28;20401;-60
2021/10/15 04:48:15;;;;;;;68.88;39.17;;;;;;;;;;5056247;28;20025;-64
2021/10/15 04:50:41;;;;;;;73.75;40.13;;;;;;;;;;5056114;28;20431;-62
2021/10/15 04:53:08;;;;;;;68.18;40.97;;;;;;;;;;5056138;28;20021;-46
2021/10/15 04:55:35;;;;;;;63.33;36.42;;;;;;;;;;5056001;28;20100;-46
2021/10/15 04:58:01;;;;;;;64.05;35.55;;;;;;;;;;5054835;28;20490;-47
2021/10/15 05:00:31;;;;;;;57.13;32.83;;;;;;;;;;5056136;28;20167;-60
2021/10/15 05:03:00;;;;;;;54.95;33.30;;;;;;;;;;5055898;28;20021;-58
2021/10/15 05:05:29;;;;;;;55.75;33.72;;;;;;;;;;5055708;28;20049;-53
2021/10/15 05:07:57;;;;;;;59.65;35.17;;;;;;;;;;5055921;28;20053;-61
2021/10/15 05:10:23;;;;;;;60.42;32.63;;;;;;;;;;5053971;28;20048;-45
2021/10/15 05:12:50;;;;;;;55.35;31.35;;;;;;;;;;5056041;28;20376;-60
2021/10/15 05:15:17;;;;;;;52.63;30.38;;;;;;;;;;5055925;28;20025;-55
2021/10/15 05:17:43;;;;;;;51.72;32.70;;;;;;;;;;5055704;28;20021;-59
2021/10/15 05:20:15;;;;;;;59.78;34.03;;;;;;;;;;5055577;28;20082;-58
2021/10/15 05:22:41;;;;;;;68.43;39.10;;;;;;;;;;5054952;28;20021;-58
2021/10/15 05:25:07;;;;;;;76.47;44.03;;;;;;;;;;5055459;28;20045;-61
2021/10/15 05:27:33;;;;;;;63.28;37.42;;;;;;;;;;5055572;28;20040;-62
2021/10/15 05:30:00;;;;;;;54.65;31.73;;;;;;;;;;5055885;28;20028;-59
2021/10/15 05:32:27;;;;;;;57.97;31.38;;;;;;;;;;5055640;28;20031;-50
2021/10/15 05:34:54;;;;;;;49.53;31.20;;;;;;;;;;5055419;28;20390;-49
2021/10/15 05:37:21;;;;;;;46.72;30.05;;;;;;;;;;5055475;28;20067;-50
2021/10/15 05:39:47;;;;;;;61.22;35.08;;;;;;;;;;5057264;28;20021;-52
2021/10/15 05:42:14;;;;;;;59.92;34.55;;;;;;;;;;5057674;28;20025;-51
2021/10/15 05:44:40;;;;;;;64.40;37.80;;;;;;;;;;5055768;28;20029;-53
2021/10/15 05:47:06;;;;;;;55.40;34.25;;;;;;;;;;5055177;28;20389;-50
2021/10/15 05:49:36;;;;;;;70.32;40.30;;;;;;;;;;5054905;28;20162;-55
2021/10/15 05:52:08;;;;;;;63.05;37.83;;;;;;;;;;5055225;28;20338;-47
2021/10/15 05:59:47;;;;;;;63.67;38.95;;;;;;;;;;5054837;28;20039;-45
2021/10/15 06:02:13;;;;;;;69.65;40.78;;;;;;;;;;5054734;28;20028;-49
2021/10/15 06:15:51;;;;;;;44.13;30.60;;;;;;;;;;5032894;28;20493;-58
2021/10/15 06:18:22;;;;;;;49.80;31.58;;;;;;;;;;5032800;28;20451;-44
2021/10/15 06:20:49;;;;;;;49.55;30.60;;;;;;;;;;5032543;28;20040;-46
2021/10/15 06:23:15;;;;;;;43.50;30.40;;;;;;;;;;5032441;28;20030;-52
2021/10/15 06:25:42;;;;;;;48.28;32.53;;;;;;;;;;5032182;28;20060;-45
2021/10/15 06:28:11;;;;;;;46.00;31.08;;;;;;;;;;5032405;28;20041;-53
2021/10/15 06:30:38;;;;;;;52.53;37.15;;;;;;;;;;5032516;28;20060;-45
2021/10/15 06:33:04;;;;;;;58.03;37.03;;;;;;;;;;5031147;28;20025;-45
2021/10/15 06:35:30;;;;;;;52.22;37.35;;;;;;;;;;5032058;28;20069;-51
2021/10/15 06:37:56;;;;;;;52.97;37.75;;;;;;;;;;5032372;28;20033;-45
2021/10/15 06:40:25;;;;;;;48.28;36.58;;;;;;;;;;5032272;28;20481;-45
2021/10/15 06:42:51;;;;;;;41.50;31.23;;;;;;;;;;5032219;28;20022;-48
2021/10/15 06:45:17;;;;;;;42.05;30.80;;;;;;;;;;5032151;28;20021;-50
2021/10/15 06:47:43;;;;;;;39.10;28.95;;;;;;;;;;5042650;28;20037;-50
2021/10/15 06:50:10;;;;;;;35.75;27.45;;;;;;;;;;5053878;28;20024;-46
2021/10/15 06:52:45;;;;;;;29.92;23.30;;;;;;;;;;5054098;28;20128;-46
2021/10/15 06:55:12;;;;;;;30.92;24.85;;;;;;;;;;5053940;28;20060;-45
2021/10/15 06:57:38;;;;;;;28.60;21.48;;;;;;;;;;5053907;28;20029;-56
2021/10/15 07:00:04;;;;;;;27.75;23.92;;;;;;;;;;5052320;28;20491;-45
2021/10/15 07:02:30;;;;;;;37.20;27.42;;;;;;;;;;5053747;28;20112;-45
2021/10/15 07:04:56;;;;;;;39.50;28.10;;;;;;;;;;5053788;28;20361;-45
2021/10/15 07:07:22;;;;;;;41.53;29.35;;;;;;;;;;5053685;28;20068;-57
2021/10/15 07:09:48;;;;;;;35.05;27.42;;;;;;;;;;5053600;28;20024;-45
2021/10/15 07:12:17;;;;;;;35.15;27.42;;;;;;;;;;5053682;28;20036;-45
2021/10/15 07:14:43;;;;;;;33.03;27.25;;;;;;;;;;5053598;28;20048;-46
2021/10/15 07:17:11;;;;;;;35.72;26.08;;;;;;;;;;5053460;28;20115;-45
2021/10/15 07:19:37;;;;;;;36.25;26.05;;;;;;;;;;5053736;28;20017;-50
2021/10/15 07:22:04;;;;;;;32.58;23.80;;;;;;;;;;5054008;28;20028;-52
2021/10/15 07:24:30;;;;;;;26.17;19.85;;;;;;;;;;5053286;28;20520;-49
2021/10/15 07:26:56;;;;;;;21.85;19.50;;;;;;;;;;5053357;28;20029;-46
2021/10/15 07:29:22;;;;;;;23.98;19.98;;;;;;;;;;5053610;28;20021;-44
2021/10/15 07:31:48;;;;;;;26.90;22.40;;;;;;;;;;5053449;28;20469;-57
2021/10/15 07:34:14;;;;;;;25.20;21.75;;;;;;;;;;5053248;28;20029;-46
2021/10/15 07:36:40;;;;;;;32.92;29.35;;;;;;;;;;5053491;28;20032;-46
2021/10/15 07:39:11;;;;;;;23.02;18.65;;;;;;;;;;5053351;28;20025;-57
2021/10/15 07:41:43;;;;;;;;;;;;;;;;;;5053744;28;20033;-51
2021/10/15 07:44:10;;;;;;;20.52;18.33;;;;;;;;;;5052763;28;20352;-47
2021/10/15 07:46:36;;;;;;;23.77;19.40;;;;;;;;;;5053192;28;20150;-54
2021/10/15 07:49:02;;;;;;;23.25;18.20;;;;;;;;;;5053343;28;20079;-51
2021/10/15 07:51:29;;;;;;;22.75;18.10;;;;;;;;;;5053183;28;20029;-54
2021/10/15 07:53:55;;;;;;;19.23;17.15;;;;;;;;;;5053209;28;20025;-51
2021/10/15 07:56:21;;;;;;;18.17;15.57;;;;;;;;;;5053171;28;20564;-54
2021/10/15 07:58:51;;;;;;;18.52;15.60;;;;;;;;;;5053165;28;20036;-51
2021/10/15 08:01:17;;;;;;;;;;;;;;;;;;5053652;28;20021;-52
2021/10/15 08:03:43;;;;;;;21.05;19.15;;;;;;;;;;5053041;28;19912;-51
2021/10/15 08:06:10;;;;;;;21.25;19.05;;;;;;;;;;5052858;28;20037;-52
2021/10/15 08:08:36;;;;;;;17.08;14.80;;;;;;;;;;5053065;28;20021;-53
2021/10/15 08:11:02;;;;;;;15.27;13.25;;;;;;;;;;5052844;28;20105;-45
2021/10/15 08:13:28;;;;;;;13.75;12.35;;;;;;;;;;5053251;28;20021;-52
2021/10/15 08:15:54;;;;;;;16.08;12.20;;;;;;;;;;5052922;28;20025;-54
2021/10/15 08:18:20;;;;;;;13.15;11.82;;;;;;;;;;5052770;28;20021;-54
2021/10/15 08:20:47;;;;;;;13.27;11.93;;;;;;;;;;5053284;28;20017;-50
2021/10/15 08:23:13;;;;;;;14.48;10.82;;;;;;;;;;5053200;28;20025;-54
2021/10/15 08:25:39;;;;;;;15.20;11.57;;;;;;;;;;5052501;28;20053;-50
2021/10/15 08:28:06;;;;;;;16.48;13.15;;;;;;;;;;5052803;28;20049;-53
2021/10/15 08:30:32;;;;;;;15.77;13.07;;;;;;;;;;5051460;28;20465;-51
2021/10/15 08:33:01;;;;;;;14.45;12.23;;;;;;;;;;5052550;28;20428;-58
2021/10/15 08:35:27;;;;;;;59.90;36.45;;;;;;;;;;5052462;28;20078;-56
2021/10/15 08:37:53;;;;;;;16.08;13.50;;;;;;;;;;5052803;28;20499;-56
2021/10/15 08:40:19;;;;;;;17.80;13.15;;;;;;;;;;5053196;28;20075;-53
2021/10/15 08:42:50;;;;;;;19.00;11.52;;;;;;;;;;5052547;28;20029;-60
2021/10/15 08:45:17;;;;;;;31.38;21.92;;;;;;;;;;5052798;28;20045;-59
2021/10/15 08:47:43;;;;;;;17.20;13.82;;;;;;;;;;5053590;28;20076;-47
2021/10/15 08:50:09;;;;;;;15.45;12.75;;;;;;;;;;5054001;28;20029;-46
2021/10/15 08:52:36;;;;;;;16.27;12.40;;;;;;;;;;5053688;28;20396;-56
2021/10/15 08:55:02;;;;;;;17.55;13.82;;;;;;;;;;5052991;28;20439;-53
2021/10/15 08:57:28;;;;;;;16.98;13.45;;;;;;;;;;5054831;28;20021;-48
2021/10/15 08:59:54;;;;;;;27.05;17.60;;;;;;;;;;5056138;28;20029;-44
2021/10/15 09:02:21;;;;;;;33.85;24.50;;;;;;;;;;5055946;28;20029;-50
2021/10/15 09:04:49;;;;;;;23.90;16.23;;;;;;;;;;5055850;28;20025;-52
2021/10/15 09:07:19;;;;;;;15.63;12.05;;;;;;;;;;5055868;28;20141;-44
2021/10/15 09:09:46;;;;;;;23.30;15.55;;;;;;;;;;5056022;28;20025;-51
2021/10/15 09:12:19;;;;;;;21.02;13.68;;;;;;;;;;5055933;28;20071;-59
2021/10/15 09:14:48;;;;;;;41.25;27.33;;;;;;;;;;5055794;28;20104;-55
2021/10/15 09:17:25;;;;;;;28.92;21.83;;;;;;;;;;5055725;28;20384;-53
2021/10/15 09:19:52;;;;;;;47.00;31.33;;;;;;;;;;5055635;28;20104;-56
2021/10/15 09:22:18;;;;;;;16.40;11.77;;;;;;;;;;5055777;28;20374;-46
2021/10/15 09:24:47;;;;;;;22.23;15.50;;;;;;;;;;5055423;28;20068;-50
2021/10/15 09:27:16;;;;;;;24.85;15.48;;;;;;;;;;5055385;28;20389;-48
2021/10/15 09:29:53;;;;;;;23.15;15.88;;;;;;;;;;5054098;28;20033;-54
2021/10/15 09:32:20;;;;;;;38.60;18.08;;;;;;;;;;5055635;28;20472;-47
2021/10/15 09:34:47;;;;;;;46.40;21.38;;;;;;;;;;5055214;28;20354;-51
2021/10/15 09:37:13;;;;;;;16.45;11.57;;;;;;;;;;5055309;28;20048;-49
2021/10/15 09:39:39;;;;;;;18.00;12.75;;;;;;;;;;5055498;28;20377;-50
2021/10/15 09:42:15;;;;;;;27.38;17.30;;;;;;;;;;5055058;28;20385;-55
2021/10/15 09:44:41;;;;;;;27.05;15.77;;;;;;;;;;5055221;28;20496;-58
2021/10/15 09:47:28;;;;;;;29.45;18.33;;;;;;;;;;5055315;28;20055;-53
2021/10/15 09:49:58;;;;;;;17.50;12.40;;;;;;;;;;5055072;28;20063;-51
2021/10/15 09:52:24;;;;;;;31.73;19.65;;;;;;;;;;5055079;28;20508;-52
2021/10/15 09:54:57;;;;;;;19.52;13.27;;;;;;;;;;5054938;28;20032;-47
2021/10/15 09:57:33;;;;;;;19.35;13.70;;;;;;;;;;5055106;28;20124;-58
2021/10/15 09:59:59;;;;;;;25.83;16.60;;;;;;;;;;5054851;28;20028;-54
2021/10/15 10:02:26;;;;;;;29.83;18.23;;;;;;;;;;5054895;28;20508;-60
2021/10/15 10:04:55;;;;;;;29.63;18.63;;;;;;;;;;5054795;28;20090;-60
2021/10/15 10:07:21;;;;;;;44.35;28.23;;;;;;;;;;5054239;28;20071;-59
2021/10/15 10:09:47;;;;;;;25.05;17.85;;;;;;;;;;5054716;28;20076;-57
2021/10/15 10:12:13;;;;;;;51.17;30.92;;;;;;;;;;5054536;28;20029;-56
2021/10/15 10:14:39;;;;;;;47.33;28.35;;;;;;;;;;5054556;28;20101;-52
2021/10/15 10:17:09;;;;;;;22.73;16.20;;;;;;;;;;5054542;28;20469;-58
2021/10/15 10:19:37;;;;;;;27.15;16.58;;;;;;;;;;5054454;28;20028;-58
2021/10/15 10:22:04;;;;;;;25.73;16.90;;;;;;;;;;5052966;28;20021;-57
2021/10/15 10:24:31;;;;;;;19.45;13.98;;;;;;;;;;5054160;28;20092;-57
2021/10/15 10:26:59;;;;;;;20.55;13.73;;;;;;;;;;5054261;28;20396;-52
2021/10/15 10:29:26;;;;;;;16.85;11.50;;;;;;;;;;5054456;28;20098;-58
2021/10/15 10:31:53;;;;;;;22.38;14.20;;;;;;;;;;5054275;28;20033;-60
2021/10/15 10:34:23;;;;;;;24.30;17.33;;;;;;;;;;5052814;28;20021;-44
2021/10/15 10:37:09;;;;;;;49.03;29.70;;;;;;;;;;5054162;28;20025;-55
2021/10/15 10:39:37;;;;;;;42.63;25.40;;;;;;;;;;5054049;28;20029;-51
2021/10/15 10:42:06;;;;;;;50.97;30.23;;;;;;;;;;5054001;28;20035;-49
2021/10/15 10:44:33;;;;;;;25.42;16.67;;;;;;;;;;5054048;28;20032;-51
2021/10/15 10:47:11;;;;;;;37.17;21.58;;;;;;;;;;5053911;28;20032;-57
2021/10/15 10:49:37;;;;;;;25.77;17.27;;;;;;;;;;5053801;28;20029;-50
2021/10/15 10:52:16;;;;;;;27.88;17.50;;;;;;;;;;5054054;28;20032;-59
2021/10/15 10:54:43;;;;;;;17.10;12.07;;;;;;;;;;5053954;28;20075;-61
2021/10/15 10:57:35;;;;;;;19.67;13.43;;;;;;;;;;5053625;28;20354;-44
2021/10/15 11:00:20;;;;;;;17.40;12.60;;;;;;;;;;5052004;28;20382;-57
2021/10/15 11:02:48;;;;;;;25.17;16.98;;;;;;;;;;5052711;28;20037;-62
2021/10/15 11:05:28;;;;;;;54.38;32.90;;;;;;;;;;5053119;28;20052;-61
2021/10/15 11:08:14;;;;;;;32.90;20.33;;;;;;;;;;5050296;28;20055;-59
2021/10/15 11:10:40;;;;;;;23.83;14.90;;;;;;;;;;5051383;28;20667;-62
2021/10/15 11:13:06;;;;;;;21.33;14.10;;;;;;;;;;5053086;28;20098;-41
2021/10/15 11:15:38;;;;;;;28.75;18.38;;;;;;;;;;5053012;28;20012;-49
2021/10/15 11:18:04;;;;;;;35.83;22.60;;;;;;;;;;5052985;28;20042;-42
2021/10/15 11:20:37;;;;;;;40.50;26.38;;;;;;;;;;5052312;28;20021;-44
2021/10/15 11:23:05;;;;;;;21.88;14.30;;;;;;;;;;5052857;28;20055;-47
2021/10/15 11:25:37;;;;;;;28.48;17.92;;;;;;;;;;5052688;28;20045;-63
2021/10/15 11:28:05;;;;;;;23.27;15.25;;;;;;;;;;5052693;28;20124;-42
2021/10/15 11:30:35;;;;;;;33.45;18.58;;;;;;;;;;5053158;28;20372;-46
2021/10/15 11:33:03;;;;;;;33.40;18.88;;;;;;;;;;5052895;28;20029;-49
2021/10/15 11:35:32;;;;;;;22.63;13.20;;;;;;;;;;5052670;28;20036;-50
2021/10/15 11:38:00;;;;;;;30.23;16.85;;;;;;;;;;5050483;28;20025;-53
2021/10/15 11:40:32;;;;;;;28.70;17.30;;;;;;;;;;5052708;28;20028;-41
2021/10/15 11:43:09;;;;;;;44.28;26.35;;;;;;;;;;5050566;28;20460;-44
2021/10/15 11:45:39;;;;;;;31.63;18.48;;;;;;;;;;5050067;28;20032;-42
2021/10/15 11:48:29;;;;;;;27.20;15.93;;;;;;;;;;5053029;28;20417;-43
2021/10/15 11:50:57;;;;;;;20.92;13.13;;;;;;;;;;5027846;28;20081;-62
2021/10/15 11:53:30;;;;;;;32.72;17.80;;;;;;;;;;5030278;28;20171;-42
2021/10/15 11:55:57;;;;;;;18.10;12.45;;;;;;;;;;5022013;28;20037;-53
2021/10/15 11:58:26;;;;;;;25.73;16.35;;;;;;;;;;5013808;28;20398;-61
2021/10/15 12:00:54;;;;;;;46.78;25.98;;;;;;;;;;5013853;28;20061;-44
2021/10/15 12:03:27;;;;;;;33.17;19.33;;;;;;;;;;5013835;28;20794;-55
2021/10/15 12:05:53;;;;;;;27.27;15.18;;;;;;;;;;5013012;28;20033;-62
2021/10/15 12:08:20;;;;;;;45.63;24.30;;;;;;;;;;5013817;28;20390;-56
2021/10/15 12:10:47;;;;;;;31.10;16.95;;;;;;;;;;5013765;28;20497;-51
2021/10/15 12:13:13;;;;;;;64.82;35.65;;;;;;;;;;5013040;28;20168;-49
2021/10/15 12:15:39;;;;;;;26.70;16.15;;;;;;;;;;5013711;28;20509;-63
2021/10/15 12:18:07;;;;;;;26.50;17.27;;;;;;;;;;5013434;28;20480;-55
2021/10/15 12:20:33;;;;;;;22.27;14.20;;;;;;;;;;5012419;28;20463;-50
2021/10/15 12:23:06;;;;;;;80.65;47.38;;;;;;;;;;5013860;28;20499;-55
2021/10/15 12:25:35;;;;;;;18.80;13.00;;;;;;;;;;5013131;28;20168;-48
2021/10/15 12:28:10;;;;;;;34.30;17.58;;;;;;;;;;5018220;28;20041;-52
2021/10/15 12:30:36;;;;;;;36.78;21.42;;;;;;;;;;5022933;28;20223;-44
2021/10/15 12:33:09;;;;;;;19.10;11.35;;;;;;;;;;5026239;28;20026;-52
2021/10/15 12:35:35;;;;;;;39.95;23.58;;;;;;;;;;5025689;28;20041;-44
2021/10/15 12:38:02;;;;;;;29.42;17.77;;;;;;;;;;5025974;28;20413;-49
2021/10/15 12:40:30;;;;;;;34.13;20.95;;;;;;;;;;5025785;28;20433;-64
2021/10/15 12:42:59;;;;;;;38.60;21.85;;;;;;;;;;5025816;28;20080;-54
2021/10/15 12:45:37;;;;;;;21.50;13.23;;;;;;;;;;5033780;28;20025;-43
2021/10/15 12:48:20;;;;;;;33.72;21.17;;;;;;;;;;5036430;28;20401;-42
2021/10/15 12:51:01;;;;;;;19.35;13.35;;;;;;;;;;5036406;28;20485;-44
2021/10/15 12:53:34;;;;;;;33.80;21.52;;;;;;;;;;5036107;28;20039;-50
2021/10/15 12:56:00;;;;;;;40.28;25.40;;;;;;;;;;5036383;28;20029;-43
2021/10/15 12:58:31;;;;;;;36.67;21.95;;;;;;;;;;5052972;28;20021;-62
2021/10/15 13:00:57;;;;;;;35.35;21.92;;;;;;;;;;5055658;28;20037;-45
2021/10/15 13:03:24;;;;;;;22.83;14.38;;;;;;;;;;5055469;28;20021;-42
2021/10/15 13:05:52;;;;;;;24.10;14.77;;;;;;;;;;5055300;28;20542;-42
2021/10/15 13:08:18;;;;;;;22.35;14.15;;;;;;;;;;5055636;28;20013;-46
2021/10/15 13:10:45;;;;;;;18.88;12.48;;;;;;;;;;5055399;28;20376;-43
2021/10/15 13:13:13;;;;;;;28.52;16.48;;;;;;;;;;5055335;28;20013;-44
2021/10/15 13:15:41;;;;;;;24.20;16.17;;;;;;;;;;5055377;28;20447;-44
2021/10/15 13:18:07;;;;;;;20.52;13.18;;;;;;;;;;5052450;28;20511;-44
2021/10/15 13:20:34;;;;;;;21.92;13.95;;;;;;;;;;5055172;28;20017;-47
2021/10/15 13:23:03;;;;;;;17.13;11.80;;;;;;;;;;5055039;28;20021;-45
2021/10/15 13:25:29;;;;;;;18.15;12.70;;;;;;;;;;5055031;28;20029;-46
2021/10/15 13:27:56;;;;;;;16.10;11.48;;;;;;;;;;5054755;28;20029;-44
2021/10/15 13:30:22;;;;;;;19.55;13.07;;;;;;;;;;5055034;28;20087;-49
2021/10/15 13:32:51;;;;;;;20.73;14.35;;;;;;;;;;5055025;28;20021;-53
2021/10/15 13:35:17;;;;;;;23.40;14.43;;;;;;;;;;5052046;28;20029;-43
2021/10/15 13:37:50;;;;;;;25.98;16.27;;;;;;;;;;5054790;28;20020;-50
2021/10/15 13:40:19;;;;;;;33.63;19.52;;;;;;;;;;5052182;28;20013;-61
2021/10/15 13:45:36;;;;;;;29.90;17.08;;;;;;;;;;5053074;28;20063;-53
2021/10/15 13:50:47;;;;;;;39.28;20.52;;;;;;;;;;5053798;28;20033;-55
2021/10/15 13:53:13;;;;;;;28.42;18.15;;;;;;;;;;5054423;28;20033;-51
2021/10/15 13:55:53;;;;;;;20.08;13.73;;;;;;;;;;5054772;28;20025;-60
2021/10/15 13:58:43;;;;;;;26.17;17.77;;;;;;;;;;5054923;28;20029;-55
2021/10/15 14:01:17;;;;;;;31.63;19.17;;;;;;;;;;5054686;28;20028;-46
2021/10/15 14:06:15;;;;;;;28.70;18.23;;;;;;;;;;5054087;28;20477;-59
2021/10/15 14:08:42;;;;;;;39.55;22.58;;;;;;;;;;5054665;28;20040;-59
2021/10/15 14:11:08;;;;;;;66.00;35.65;;;;;;;;;;5054554;28;20096;-60
2021/10/15 14:13:34;;;;;;;33.50;21.38;;;;;;;;;;5054528;28;20037;-59
2021/10/15 14:16:01;;;;;;;30.50;18.15;;;;;;;;;;5054712;28;20025;-59
2021/10/15 14:18:30;;;;;;;32.53;18.70;;;;;;;;;;5053224;28;20382;-55
2021/10/15 14:20:57;;;;;;;25.30;13.75;;;;;;;;;;5054461;28;20025;-60
2021/10/15 14:23:23;;;;;;;38.70;20.50;;;;;;;;;;5054375;28;20029;-60
2021/10/15 14:25:49;;;;;;;30.90;17.77;;;;;;;;;;5054113;28;20068;-59
2021/10/15 14:28:18;;;;;;;34.72;19.15;;;;;;;;;;5054237;28;20094;-60
2021/10/15 14:30:44;;;;;;;32.85;18.13;;;;;;;;;;5054352;28;20032;-58
2021/10/15 14:33:10;;;;;;;48.20;26.65;;;;;;;;;;5054272;28;20056;-60
2021/10/15 14:35:36;;;;;;;46.95;27.00;;;;;;;;;;5054409;28;20112;-61
2021/10/15 14:38:03;;;;;;;39.40;23.60;;;;;;;;;;5054170;28;20032;-62
2021/10/15 14:40:29;;;;;;;35.85;21.60;;;;;;;;;;5054034;28;20469;-57
2021/10/15 14:42:56;;;;;;;33.55;21.95;;;;;;;;;;5053833;28;20040;-56